Canaan Lake, New York
Current Conditions -  °F | °C
As of 9:56 PM on Monday 22 Dec 2014 (Local Time) from KISP Reporting Station
Drizzle Drizzle  
Wind Chill: 40°   Ceiling: 700
Heat Index: 45°   Visibility: 4mi
Dew Point: 42°   Wind: 9mph
Humidity: 90%   Direction: 90°E
Pressure: 30.19"   Gusts: NA
Location:  40.7718°N, 72.9949°W
Report Text: KISP 230256Z 09008KT 4SM -DZ BR BKN007 OVC011 07/06 A3019 RMK AO2 DZE12B25RAB12E25 SLP224 P0000 60000 T00720056 58009
Loading
Personal Weather Stations






























Interactive Weather Map New forecast layout! Learn more

10-Day Weather Forecast

Advertisements
Track Severe Weather on mobile